Time;durP1;ratioP1;P1;durP2;ratioP2;P2;SDS_P1;SDS_P2;PMS_P1;PMS_P2;Temp;Humidity;BMP_temperature;BMP_pressure;BME280_temperature;BME280_humidity;BME280_pressure;Samples;Min_cycle;Max_cycle;Signal;HPM_P1;HPM_P2
2022/06/13 00:01:53;;;;;;;7.72;6.93;;;18.30;99.90;;;;;;5092800;28;20670;-73
2022/06/13 00:04:18;;;;;;;8.20;7.30;;;18.20;99.90;;;;;;5094063;28;20185;-73
2022/06/13 00:06:44;;;;;;;9.52;8.60;;;18.30;99.90;;;;;;5101301;28;20179;-73
2022/06/13 00:09:10;;;;;;;11.48;10.27;;;18.20;99.90;;;;;;5091965;28;20561;-73
2022/06/13 00:11:36;;;;;;;12.20;11.10;;;18.20;99.90;;;;;;5089562;28;20218;-73
2022/06/13 00:14:03;;;;;;;13.30;10.27;;;18.20;99.90;;;;;;5101371;28;20709;-74
2022/06/13 00:16:29;;;;;;;13.40;11.73;;;18.10;99.90;;;;;;5101250;28;20537;-74
2022/06/13 00:18:55;;;;;;;11.68;10.30;;;18.20;99.90;;;;;;5092971;28;20182;-73
2022/06/13 00:21:27;;;;;;;15.55;9.73;;;18.10;99.90;;;;;;5101284;28;20197;-73
2022/06/13 00:23:53;;;;;;;9.68;7.53;;;18.00;99.90;;;;;;5093140;28;20200;-73
2022/06/13 00:26:23;;;;;;;7.18;6.22;;;17.90;99.90;;;;;;5102795;28;20181;-72
2022/06/13 00:28:50;;;;;;;9.65;8.27;;;17.80;99.90;;;;;;5097181;28;20202;-73
2022/06/13 00:31:16;;;;;;;9.15;8.25;;;17.70;99.90;;;;;;5100156;28;20201;-72
2022/06/13 00:33:42;;;;;;;7.53;6.82;;;17.50;99.90;;;;;;5096525;28;20305;-72
2022/06/13 00:36:08;;;;;;;12.50;8.07;;;17.40;99.90;;;;;;5096781;28;20645;-74
2022/06/13 00:38:34;;;;;;;6.50;6.00;;;17.30;99.90;;;;;;5096686;28;20196;-73
2022/06/13 00:41:00;;;;;;;7.47;6.85;;;17.10;99.90;;;;;;5101312;28;20207;-73
2022/06/13 00:43:26;;;;;;;6.30;5.70;;;17.10;99.90;;;;;;5098934;28;20186;-73
2022/06/13 00:45:51;;;;;;;7.05;5.20;;;17.00;99.90;;;;;;5099955;28;20665;-74
2022/06/13 00:48:25;;;;;;;6.28;5.78;;;17.00;99.90;;;;;;5095616;28;20193;-73
2022/06/13 00:51:00;;;;;;;6.82;5.28;;;17.10;99.90;;;;;;5084352;28;20236;-73
2022/06/13 00:53:32;;;;;;;7.43;5.20;;;17.00;99.90;;;;;;5091215;28;20197;-74
2022/06/13 00:56:00;;;;;;;6.03;5.22;;;17.00;99.90;;;;;;5093678;28;20567;-73
2022/06/13 00:58:29;;;;;;;5.50;5.07;;;16.90;99.90;;;;;;5098966;28;20180;-73
2022/06/13 01:00:57;;;;;;;5.03;4.60;;;16.90;99.90;;;;;;5097862;28;20229;-73
2022/06/13 01:03:25;;;;;;;5.95;4.97;;;16.90;99.90;;;;;;5096513;28;20175;-74
2022/06/13 01:05:53;;;;;;;4.82;4.43;;;16.90;99.90;;;;;;5101189;28;20676;-74
2022/06/13 01:08:22;;;;;;;6.50;5.50;;;16.90;99.90;;;;;;5098499;28;20322;-74
2022/06/13 01:13:50;;;;;;;4.88;4.47;;;16.90;99.90;;;;;;5098983;28;20213;-74
2022/06/13 01:16:26;;;;;;;5.15;3.78;;;17.00;99.90;;;;;;5091530;28;20193;-75
2022/06/13 01:19:09;;;;;;;4.28;3.97;;;17.00;99.90;;;;;;5101211;28;20178;-74
2022/06/13 01:21:49;;;;;;;4.75;4.07;;;16.90;99.90;;;;;;5102478;28;20191;-75
2022/06/13 01:24:54;;;;;;;4.57;4.20;;;16.90;99.90;;;;;;5089336;28;20222;-74
2022/06/13 01:27:45;;;;;;;4.13;3.78;;;16.90;99.90;;;;;;5100546;28;20192;-72
2022/06/13 01:30:22;;;;;;;3.88;3.67;;;16.90;99.90;;;;;;5087799;28;20195;-73
2022/06/13 01:33:04;;;;;;;4.00;3.70;;;17.00;99.90;;;;;;5088869;28;20281;-73
2022/06/13 01:35:38;;;;;;;3.92;3.70;;;17.00;99.90;;;;;;5088858;28;20257;-73
2022/06/13 01:38:07;;;;;;;4.75;4.35;;;17.00;99.90;;;;;;5111065;28;20173;-73
2022/06/13 01:40:32;;;;;;;3.85;3.65;;;17.00;99.90;;;;;;5092011;28;20182;-73
2022/06/13 01:43:09;;;;;;;4.57;4.28;;;16.90;99.90;;;;;;5094627;28;20217;-73
2022/06/13 01:45:46;;;;;;;6.07;5.57;;;17.00;99.90;;;;;;5104154;28;20181;-73
2022/06/13 01:48:46;;;;;;;5.82;5.38;;;17.00;99.90;;;;;;5087717;28;20180;-73
2022/06/13 01:51:31;;;;;;;4.70;4.40;;;17.00;99.90;;;;;;5094506;28;20280;-75
2022/06/13 01:54:36;;;;;;;6.28;4.93;;;16.80;99.90;;;;;;5098900;28;20197;-75
2022/06/13 01:57:28;;;;;;;6.28;4.95;;;16.70;99.90;;;;;;5081381;28;20183;-74
2022/06/13 02:00:16;;;;;;;7.03;4.75;;;16.70;99.90;;;;;;5102248;28;20273;-74
2022/06/13 02:02:55;;;;;;;6.32;5.28;;;16.80;99.90;;;;;;5089144;28;20733;-74
2022/06/13 02:05:31;;;;;;;8.38;6.47;;;16.80;99.90;;;;;;5100900;27;20173;-74
2022/06/13 02:08:20;;;;;;;9.07;6.20;;;16.90;99.90;;;;;;5091593;28;20256;-74
2022/06/13 02:11:18;;;;;;;6.68;5.82;;;16.70;99.90;;;;;;5094532;28;20178;-74
2022/06/13 02:13:56;;;;;;;7.80;5.90;;;16.60;99.90;;;;;;5092368;28;20210;-73
2022/06/13 02:16:27;;;;;;;9.80;5.80;;;16.70;99.90;;;;;;5095943;28;20791;-73
2022/06/13 02:19:04;;;;;;;6.90;6.15;;;16.70;99.90;;;;;;5102065;28;20186;-73
2022/06/13 02:21:39;;;;;;;5.18;4.78;;;16.70;99.90;;;;;;5091334;28;20194;-73
2022/06/13 02:24:10;;;;;;;5.32;4.82;;;16.60;99.90;;;;;;5101201;28;20197;-74
2022/06/13 02:26:38;;;;;;;5.20;4.70;;;16.60;99.90;;;;;;5096880;28;20181;-73
2022/06/13 02:29:14;;;;;;;7.00;5.80;;;16.60;99.90;;;;;;5094660;28;20675;-74
2022/06/13 02:31:45;;;;;;;18.67;7.72;;;16.70;99.90;;;;;;5090907;28;20230;-73
2022/06/13 02:34:23;;;;;;;28.88;7.30;;;16.70;99.90;;;;;;5094325;28;20278;-74
2022/06/13 02:37:09;;;;;;;11.90;8.05;;;16.70;99.90;;;;;;5099940;28;20180;-74
2022/06/13 02:39:50;;;;;;;8.13;7.38;;;16.60;99.90;;;;;;5097849;28;20166;-73
2022/06/13 02:42:29;;;;;;;9.10;7.45;;;16.50;99.90;;;;;;5099510;28;20196;-73
2022/06/13 02:45:14;;;;;;;8.32;7.32;;;16.50;99.90;;;;;;5088652;28;20174;-73
2022/06/13 02:48:02;;;;;;;13.13;7.35;;;16.50;99.90;;;;;;5092126;28;20175;-72
2022/06/13 02:51:02;;;;;;;7.15;6.47;;;16.50;99.90;;;;;;5092320;28;20665;-72
2022/06/13 02:53:36;;;;;;;6.85;6.07;;;16.40;99.90;;;;;;5087598;28;20327;-72
2022/06/13 02:56:31;;;;;;;10.57;6.50;;;16.40;99.90;;;;;;5100370;28;20173;-72
2022/06/13 02:59:24;;;;;;;8.18;6.47;;;16.50;99.90;;;;;;5098631;28;20677;-72
2022/06/13 03:01:54;;;;;;;6.80;6.10;;;16.40;99.90;;;;;;5093206;28;20203;-72
2022/06/13 03:04:34;;;;;;;5.68;5.07;;;16.40;99.90;;;;;;5087641;28;20258;-72
2022/06/13 03:07:48;;;;;;;6.45;5.03;;;16.30;99.90;;;;;;5102433;28;20177;-72
2022/06/13 03:10:21;;;;;;;5.00;4.50;;;16.30;99.90;;;;;;5088858;28;20178;-72
2022/06/13 03:12:59;;;;;;;4.50;4.07;;;16.20;99.90;;;;;;5095236;28;20226;-73
2022/06/13 03:15:47;;;;;;;5.20;4.75;;;16.20;99.90;;;;;;5094622;28;20179;-73
2022/06/13 03:18:19;;;;;;;5.07;4.57;;;16.30;99.90;;;;;;5086348;28;20265;-72
2022/06/13 03:20:52;;;;;;;4.38;4.00;;;16.30;99.90;;;;;;5099198;28;20641;-73
2022/06/13 03:23:18;;;;;;;4.82;3.92;;;16.20;99.90;;;;;;5089870;28;20179;-73
2022/06/13 03:25:50;;;;;;;4.47;4.07;;;16.20;99.90;;;;;;5102773;28;20174;-75
2022/06/13 03:28:40;;;;;;;5.45;4.22;;;16.20;99.90;;;;;;5092206;28;20198;-73
2022/06/13 03:31:18;;;;;;;3.85;3.55;;;16.20;99.90;;;;;;5095159;28;20700;-73
2022/06/13 03:33:47;;;;;;;3.83;3.53;;;16.10;99.90;;;;;;5091823;28;20190;-73
2022/06/13 03:36:17;;;;;;;4.80;3.63;;;16.00;99.90;;;;;;5094564;28;20261;-72
2022/06/13 03:38:49;;;;;;;4.00;3.65;;;16.00;99.90;;;;;;5094956;28;20641;-73
2022/06/13 03:41:18;;;;;;;4.32;3.92;;;16.10;99.90;;;;;;5080321;28;20191;-73
2022/06/13 03:43:49;;;;;;;4.45;4.07;;;16.10;99.90;;;;;;5084654;28;20241;-73
2022/06/13 03:46:24;;;;;;;5.88;3.42;;;16.10;99.90;;;;;;5077514;28;20779;-73
2022/06/13 03:49:05;;;;;;;3.47;3.28;;;16.20;99.90;;;;;;5091498;28;20174;-73
2022/06/13 03:51:41;;;;;;;3.22;3.03;;;16.20;99.90;;;;;;5079338;28;20199;-73
2022/06/13 03:54:15;;;;;;;3.47;3.17;;;16.30;99.90;;;;;;5088837;28;20233;-72
2022/06/13 03:56:54;;;;;;;4.03;3.53;;;16.30;99.90;;;;;;5090588;28;20269;-72
2022/06/13 03:59:41;;;;;;;4.57;3.50;;;16.30;99.90;;;;;;5078957;28;20597;-73
2022/06/13 04:02:11;;;;;;;3.72;3.53;;;16.50;99.90;;;;;;5092566;28;20256;-73
2022/06/13 04:04:50;;;;;;;5.30;4.90;;;16.60;99.90;;;;;;5088881;28;20719;-73
2022/06/13 04:07:18;;;;;;;4.80;4.40;;;16.80;99.90;;;;;;5087911;28;20936;-73
2022/06/13 04:09:51;;;;;;;4.82;4.43;;;16.80;99.90;;;;;;5085337;28;20198;-73
2022/06/13 04:12:23;;;;;;;4.18;3.88;;;16.70;99.90;;;;;;5086417;28;20248;-73
2022/06/13 04:15:10;;;;;;;4.00;3.72;;;16.80;99.90;;;;;;5086353;28;20202;-73
2022/06/13 04:17:54;;;;;;;4.63;4.28;;;16.80;99.90;;;;;;5086226;28;20193;-74
2022/06/13 04:20:30;;;;;;;5.30;4.90;;;16.80;99.90;;;;;;5087182;28;20190;-72
2022/06/13 04:23:22;;;;;;;5.70;5.20;;;16.80;99.90;;;;;;5082958;28;20205;-73
2022/06/13 04:26:16;;;;;;;6.28;5.68;;;16.90;99.90;;;;;;5088141;28;20321;-73
2022/06/13 04:28:51;;;;;;;4.47;4.07;;;16.90;99.90;;;;;;5083151;28;20216;-73
2022/06/13 04:31:18;;;;;;;7.50;6.82;;;16.90;99.90;;;;;;5083794;28;20221;-73
2022/06/13 04:33:50;;;;;;;8.68;7.80;;;16.90;99.90;;;;;;5082447;28;20194;-73
2022/06/13 04:36:18;;;;;;;7.35;6.68;;;16.90;99.90;;;;;;5090632;28;20221;-73
2022/06/13 04:38:52;;;;;;;8.02;7.43;;;17.00;99.90;;;;;;5103574;28;20197;-73
2022/06/13 04:41:20;;;;;;;8.98;8.15;;;17.10;99.90;;;;;;5100619;28;20202;-72
2022/06/13 04:43:49;;;;;;;11.02;10.00;;;17.20;99.90;;;;;;5096316;28;20613;-73
2022/06/13 04:46:19;;;;;;;9.32;8.52;;;17.20;99.90;;;;;;5085675;28;20178;-73
2022/06/13 04:48:49;;;;;;;9.10;8.23;;;17.30;99.90;;;;;;5099255;28;20187;-72
2022/06/13 04:51:19;;;;;;;11.15;10.10;;;17.30;99.90;;;;;;5083312;28;20211;-73
2022/06/13 04:54:05;;;;;;;12.30;11.20;;;17.50;99.90;;;;;;5082157;28;20205;-73
2022/06/13 04:56:30;;;;;;;10.50;9.57;;;17.50;99.90;;;;;;5094354;28;20181;-72
2022/06/13 04:58:58;;;;;;;8.75;8.05;;;17.60;99.90;;;;;;5088998;28;20548;-72
2022/06/13 05:01:30;;;;;;;9.73;8.82;;;17.60;99.90;;;;;;5086043;28;20214;-73
2022/06/13 05:03:59;;;;;;;10.27;9.48;;;17.60;99.90;;;;;;5096471;28;20226;-73
2022/06/13 05:06:30;;;;;;;12.02;10.93;;;17.70;99.90;;;;;;5096674;28;20853;-73
2022/06/13 05:09:03;;;;;;;9.90;9.20;;;17.80;99.90;;;;;;5091184;28;20187;-73
2022/06/13 05:11:40;;;;;;;11.20;10.30;;;17.80;99.90;;;;;;5085537;28;20733;-73
2022/06/13 05:14:19;;;;;;;11.38;10.27;;;17.80;99.90;;;;;;5080805;28;20206;-74
2022/06/13 05:16:57;;;;;;;10.90;9.90;;;17.80;99.90;;;;;;5082619;28;20578;-73
2022/06/13 05:19:38;;;;;;;12.18;11.07;;;17.70;99.90;;;;;;5092861;28;20182;-77
2022/06/13 05:22:03;;;;;;;11.02;10.13;;;17.70;99.90;;;;;;5103753;28;20196;-74
2022/06/13 05:24:59;;;;;;;9.10;8.27;;;17.70;99.90;;;;;;5097342;28;20178;-77
2022/06/13 05:27:24;;;;;;;9.05;8.40;;;17.60;99.90;;;;;;5093499;28;20712;-72
2022/06/13 05:29:50;;;;;;;10.68;9.70;;;17.60;99.90;;;;;;5096430;28;20307;-76
2022/06/13 05:32:19;;;;;;;8.63;7.38;;;17.80;99.90;;;;;;5099868;28;20198;-77
2022/06/13 05:34:45;;;;;;;8.90;8.07;;;18.10;99.90;;;;;;5090585;28;20229;-77
2022/06/13 05:37:13;;;;;;;8.85;7.95;;;18.10;99.90;;;;;;5094491;28;20529;-77
2022/06/13 05:39:39;;;;;;;8.13;7.53;;;18.20;99.90;;;;;;5097064;28;20184;-75
2022/06/13 05:42:05;;;;;;;8.02;7.32;;;18.30;99.90;;;;;;5096041;28;20285;-75
2022/06/13 05:44:31;;;;;;;7.63;6.93;;;18.30;99.90;;;;;;5092125;28;20728;-75
2022/06/13 05:46:57;;;;;;;6.32;5.85;;;18.30;99.90;;;;;;5091477;28;20179;-75
2022/06/13 05:49:23;;;;;;;9.00;8.40;;;18.40;99.90;;;;;;5095023;28;20183;-75
2022/06/13 05:51:48;;;;;;;9.48;8.88;;;18.40;99.90;;;;;;5094880;28;20221;-74
2022/06/13 05:54:14;;;;;;;9.60;8.80;;;18.30;99.90;;;;;;5090381;28;20253;-75
2022/06/13 05:56:40;;;;;;;11.10;9.93;;;18.10;99.90;;;;;;5091366;28;20182;-75
2022/06/13 05:59:06;;;;;;;10.70;9.73;;;18.10;99.90;;;;;;5088461;28;20179;-77
2022/06/13 06:01:35;;;;;;;11.60;10.60;;;18.10;99.90;;;;;;5086201;28;20680;-75
2022/06/13 06:04:01;;;;;;;11.10;10.00;;;18.00;99.90;;;;;;5094357;28;20293;-75
2022/06/13 06:06:28;;;;;;;10.07;9.07;;;18.10;99.90;;;;;;5091921;28;20183;-75
2022/06/13 06:08:54;;;;;;;9.80;9.00;;;18.10;99.90;;;;;;5087879;28;20187;-74
2022/06/13 06:11:21;;;;;;;9.45;8.55;;;18.30;99.90;;;;;;5092623;28;20285;-74
2022/06/13 06:13:47;;;;;;;6.97;6.38;;;18.40;99.90;;;;;;5090207;28;20699;-75
2022/06/13 06:16:18;;;;;;;6.07;5.57;;;18.50;99.90;;;;;;5076998;28;20183;-77
2022/06/13 06:18:44;;;;;;;6.22;5.72;;;18.70;99.90;;;;;;5086979;28;20221;-75
2022/06/13 06:21:10;;;;;;;7.32;6.72;;;18.90;99.90;;;;;;5095603;28;20278;-73
2022/06/13 06:23:37;;;;;;;6.55;5.95;;;19.10;99.90;;;;;;5104082;28;20240;-74
2022/06/13 06:26:04;;;;;;;6.82;6.20;;;19.40;99.90;;;;;;5095373;28;20216;-73
2022/06/13 06:28:31;;;;;;;8.38;7.70;;;19.70;99.90;;;;;;5092912;28;20201;-74
2022/06/13 06:30:58;;;;;;;6.88;6.32;;;19.90;99.90;;;;;;5097752;28;20214;-74
2022/06/13 06:33:25;;;;;;;4.43;4.13;;;20.60;99.90;;;;;;5089369;28;20568;-77
2022/06/13 06:35:54;;;;;;;5.30;4.93;;;20.30;99.90;;;;;;5084922;28;20653;-75
2022/06/13 06:38:24;;;;;;;5.25;4.85;;;20.20;99.90;;;;;;5094536;28;20553;-76
2022/06/13 06:40:51;;;;;;;3.97;3.67;;;20.20;99.90;;;;;;5097702;28;20259;-78
2022/06/13 06:43:17;;;;;;;4.93;4.05;;;20.40;99.90;;;;;;5059870;28;20653;-78
2022/06/13 06:45:43;;;;;;;4.65;4.35;;;20.40;99.90;;;;;;5093696;28;20191;-76
2022/06/13 06:48:22;;;;;;;4.40;4.05;;;20.40;99.90;;;;;;5095722;28;20188;-75
2022/06/13 06:50:49;;;;;;;4.43;4.03;;;20.40;99.90;;;;;;5097514;28;20190;-75
2022/06/13 06:53:17;;;;;;;4.43;4.13;;;20.40;99.90;;;;;;5085371;28;20195;-74
2022/06/13 07:01:14;;;;;;;3.20;2.90;;;20.10;99.90;;;;;;5096299;28;20692;-74
2022/06/13 07:03:40;;;;;;;2.80;2.60;;;19.90;99.90;;;;;;5095287;28;20559;-73
2022/06/13 07:06:07;;;;;;;3.30;3.00;;;20.10;99.90;;;;;;5102270;28;20183;-74
2022/06/13 07:08:33;;;;;;;3.00;2.80;;;20.40;99.90;;;;;;5095460;28;20256;-74
2022/06/13 07:11:54;;;;;;;2.58;2.38;;;20.60;99.90;;;;;;5092008;28;20245;-73
2022/06/13 07:13:46;;;;;;;3.28;2.47;;;20.80;99.90;;;;;;5089722;28;20255;-74
2022/06/13 07:16:12;;;;;;;2.55;2.20;;;20.90;99.90;;;;;;5094999;28;20179;-74
2022/06/13 07:18:38;;;;;;;2.83;2.63;;;21.10;99.90;;;;;;5095450;28;20257;-74
2022/06/13 07:21:04;;;;;;;2.42;2.25;;;21.40;99.90;;;;;;5094290;28;20303;-75
2022/06/13 07:23:30;;;;;;;2.22;2.13;;;21.30;99.90;;;;;;5090880;28;20187;-74
2022/06/13 07:25:56;;;;;;;2.80;2.40;;;21.50;99.90;;;;;;5097382;28;20178;-75
2022/06/13 07:28:21;;;;;;;3.83;2.67;;;21.80;99.90;;;;;;5094508;28;20585;-75
2022/06/13 07:30:48;;;;;;;5.47;2.55;;;22.20;99.90;;;;;;5096452;28;20664;-74
2022/06/13 07:33:15;;;;;;;2.70;2.50;;;22.20;99.90;;;;;;5100341;28;20206;-74
2022/06/13 07:35:41;;;;;;;2.78;1.90;;;22.00;99.90;;;;;;5092377;28;20303;-74
2022/06/13 07:38:18;;;;;;;3.28;2.13;;;21.90;99.90;;;;;;5098142;28;20225;-75
2022/06/13 07:40:49;;;;;;;2.47;2.28;;;21.80;99.90;;;;;;5093480;28;20212;-74
2022/06/13 07:43:36;;;;;;;2.90;2.70;;;21.40;99.90;;;;;;5091956;28;20175;-74
2022/06/13 07:46:05;;;;;;;2.38;2.15;;;21.20;99.90;;;;;;5096914;28;20670;-74
2022/06/13 07:48:32;;;;;;;3.42;2.15;;;21.10;99.90;;;;;;5091571;28;20190;-73
2022/06/13 07:50:58;;;;;;;2.47;2.30;;;21.20;99.90;;;;;;5094285;28;20187;-74
2022/06/13 07:53:24;;;;;;;2.92;2.63;;;21.30;99.90;;;;;;5088132;28;20210;-79
2022/06/13 07:55:50;;;;;;;3.47;2.17;;;21.30;99.90;;;;;;5087261;28;20171;-78
2022/06/13 07:58:21;;;;;;;2.33;2.17;;;21.30;99.90;;;;;;5091530;28;20177;-79
2022/06/13 08:00:49;;;;;;;2.45;2.08;;;21.20;99.90;;;;;;5090329;28;20257;-79
2022/06/13 08:03:25;;;;;;;3.22;2.50;;;21.30;99.90;;;;;;5098997;28;20174;-81
2022/06/13 08:05:51;;;;;;;2.60;2.40;;;21.50;99.90;;;;;;5087775;28;20190;-78
2022/06/13 08:08:18;;;;;;;2.72;2.53;;;21.80;99.90;;;;;;5094685;28;20631;-79
2022/06/13 08:10:44;;;;;;;2.40;2.20;;;22.10;99.90;;;;;;5090941;28;20181;-79
2022/06/13 08:13:13;;;;;;;3.00;2.45;;;22.30;99.90;;;;;;5097230;28;20199;-80
2022/06/13 08:15:39;;;;;;;7.78;2.78;;;22.20;99.90;;;;;;5094461;28;20265;-79
2022/06/13 08:18:05;;;;;;;3.78;2.55;;;22.10;99.90;;;;;;5090411;28;20779;-80
2022/06/13 08:20:31;;;;;;;2.50;2.30;;;22.00;99.90;;;;;;5090379;28;20175;-80
2022/06/13 08:22:59;;;;;;;2.20;2.03;;;21.90;99.90;;;;;;5090436;28;20206;-80
2022/06/13 08:25:28;;;;;;;3.85;2.50;;;21.70;99.90;;;;;;5091289;28;20639;-79
2022/06/13 08:27:55;;;;;;;4.68;2.38;;;21.50;99.90;;;;;;5092660;28;20207;-79
2022/06/13 08:30:21;;;;;;;3.60;2.80;;;21.50;99.90;;;;;;5094744;28;20257;-79
2022/06/13 08:32:47;;;;;;;2.40;2.20;;;21.60;99.90;;;;;;5093297;28;20294;-79
2022/06/13 08:35:14;;;;;;;2.60;2.40;;;21.70;99.90;;;;;;5092789;28;20592;-79
2022/06/13 08:37:40;;;;;;;2.92;2.67;;;21.80;99.90;;;;;;5091717;28;20620;-79
2022/06/13 08:40:06;;;;;;;3.28;2.40;;;22.10;99.90;;;;;;5092676;28;20258;-78
2022/06/13 08:42:54;;;;;;;2.58;2.38;;;22.30;99.90;;;;;;5092167;28;20198;-77
2022/06/13 08:45:44;;;;;;;3.95;3.00;;;22.00;99.90;;;;;;5088958;28;21950;-78
2022/06/13 08:48:23;;;;;;;4.68;2.75;;;22.00;99.90;;;;;;5088326;28;20171;-77
2022/06/13 08:50:57;;;;;;;2.88;2.60;;;22.20;99.90;;;;;;5088208;28;20181;-78
2022/06/13 08:53:27;;;;;;;2.25;2.05;;;22.40;99.90;;;;;;5090781;28;20203;-76
2022/06/13 08:56:01;;;;;;;3.47;2.92;;;22.30;99.90;;;;;;5095012;28;20175;-74
2022/06/13 08:58:41;;;;;;;3.53;2.83;;;22.20;99.90;;;;;;5088633;28;20190;-74
2022/06/13 09:01:12;;;;;;;2.75;2.55;;;22.30;99.90;;;;;;5089532;28;20194;-75
2022/06/13 09:04:05;;;;;;;3.63;2.58;;;22.40;99.90;;;;;;5096525;28;20268;-77
2022/06/13 09:06:52;;;;;;;3.80;2.60;;;22.60;99.90;;;;;;5090701;28;20183;-75
2022/06/13 09:09:34;;;;;;;4.00;2.63;;;22.80;99.90;;;;;;5095043;28;20539;-74
2022/06/13 09:12:07;;;;;;;2.75;2.55;;;22.80;99.90;;;;;;5095433;28;20747;-74
2022/06/13 09:14:45;;;;;;;2.47;2.28;;;22.80;99.90;;;;;;5089499;28;20259;-74
2022/06/13 09:17:32;;;;;;;5.10;2.88;;;23.10;99.90;;;;;;5089787;28;20175;-75
2022/06/13 09:20:06;;;;;;;3.95;2.25;;;23.30;99.90;;;;;;5101242;28;20530;-74
2022/06/13 09:22:43;;;;;;;3.17;2.88;;;23.50;99.90;;;;;;5088850;28;20243;-75
2022/06/13 09:25:16;;;;;;;3.08;2.30;;;23.70;99.90;;;;;;5086791;28;20269;-75
2022/06/13 09:28:04;;;;;;;2.92;2.38;;;23.80;99.90;;;;;;5093418;28;20225;-74
2022/06/13 09:30:40;;;;;;;4.95;2.28;;;24.10;99.90;;;;;;5087888;28;20195;-74
2022/06/13 09:33:18;;;;;;;4.38;2.60;;;24.20;99.90;;;;;;5093964;28;20685;-76
2022/06/13 09:35:54;;;;;;;4.38;2.55;;;24.30;99.90;;;;;;5092436;28;20542;-75
2022/06/13 09:38:35;;;;;;;2.90;2.70;;;24.70;99.90;;;;;;5089643;28;20183;-76
2022/06/13 09:41:01;;;;;;;3.03;2.30;;;25.40;99.90;;;;;;5099451;28;20217;-76
2022/06/13 09:43:40;;;;;;;6.35;2.53;;;27.50;99.90;;;;;;5096056;28;20290;-74
2022/06/13 09:46:32;;;;;;;5.22;2.13;;;28.60;99.20;;;;;;5099109;28;20667;-74
2022/06/13 09:49:24;;;;;;;2.53;2.33;;;28.70;94.40;;;;;;5087242;28;20261;-76
2022/06/13 09:51:56;;;;;;;2.78;2.00;;;29.60;89.80;;;;;;5095755;28;20195;-73
2022/06/13 09:55:00;;;;;;;4.70;1.95;;;29.80;93.10;;;;;;5094066;28;20202;-73
2022/06/13 09:57:48;;;;;;;3.40;2.10;;;30.80;81.90;;;;;;5045882;28;20190;-74
2022/06/13 10:00:41;;;;;;;3.35;1.80;;;32.90;76.60;;;;;;5085425;28;20257;-74
2022/06/13 10:03:16;;;;;;;2.92;1.77;;;33.60;69.50;;;;;;5082438;28;20249;-74
2022/06/13 10:05:47;;;;;;;4.45;1.90;;;33.60;68.60;;;;;;5089265;28;20195;-74
2022/06/13 10:08:46;;;;;;;4.10;2.10;;;33.40;62.00;;;;;;5084166;28;20253;-75
2022/06/13 10:11:28;;;;;;;2.33;1.95;;;32.40;64.70;;;;;;5090622;28;20190;-75
2022/06/13 10:14:06;;;;;;;2.60;1.98;;;31.20;63.30;;;;;;5090174;28;20725;-72
2022/06/13 10:16:40;;;;;;;4.65;2.30;;;30.80;69.50;;;;;;5083485;28;20185;-71
2022/06/13 10:19:23;;;;;;;1.83;1.45;;;31.10;68.90;;;;;;5082209;28;20186;-71
2022/06/13 10:22:03;;;;;;;2.15;1.73;;;32.70;58.50;;;;;;5081521;28;20199;-72
2022/06/13 10:24:28;;;;;;;2.63;1.98;;;33.90;56.30;;;;;;5093280;28;20186;-72
2022/06/13 10:27:21;;;;;;;3.30;2.00;;;34.20;55.60;;;;;;5094436;28;20193;-72
2022/06/13 10:30:00;;;;;;;2.85;1.80;;;35.30;56.30;;;;;;5094940;28;20605;-72
2022/06/13 10:32:55;;;;;;;3.53;2.08;;;36.40;53.50;;;;;;5095138;28;20208;-72
2022/06/13 10:35:54;;;;;;;4.35;1.88;;;36.80;48.80;;;;;;5096947;28;20181;-72
2022/06/13 10:38:44;;;;;;;2.58;1.83;;;36.40;50.90;;;;;;5068984;28;20190;-71
2022/06/13 10:41:10;;;;;;;2.75;2.42;;;36.20;47.90;;;;;;5084549;28;20189;-71
2022/06/13 10:43:37;;;;;;;2.80;2.42;;;36.00;47.50;;;;;;5091587;28;20624;-71
2022/06/13 10:46:06;;;;;;;2.10;1.90;;;35.70;47.90;;;;;;5086281;28;20196;-71
2022/06/13 10:48:39;;;;;;;2.08;1.40;;;35.70;49.60;;;;;;5085045;28;20202;-71
2022/06/13 10:51:05;;;;;;;4.35;1.85;;;37.00;46.50;;;;;;5092347;28;20269;-72
2022/06/13 10:53:39;;;;;;;1.60;1.50;;;37.20;43.90;;;;;;5086185;28;20240;-71
2022/06/13 10:56:14;;;;;;;1.65;1.40;;;36.80;43.50;;;;;;5090764;28;20222;-71
2022/06/13 10:58:46;;;;;;;2.50;1.50;;;36.30;44.10;;;;;;5091208;28;20171;-72
2022/06/13 11:01:23;;;;;;;2.45;1.52;;;35.80;46.10;;;;;;5092932;28;20205;-71
2022/06/13 11:04:18;;;;;;;2.28;1.85;;;36.30;43.70;;;;;;5092535;28;20181;-71
2022/06/13 11:06:48;;;;;;;1.80;1.48;;;36.90;43.90;;;;;;5093208;28;20208;-71
2022/06/13 11:09:21;;;;;;;2.67;1.58;;;36.90;42.30;;;;;;5087748;28;20792;-71
2022/06/13 11:11:47;;;;;;;1.65;1.50;;;36.90;42.50;;;;;;5083151;28;20201;-71
2022/06/13 11:23:58;;;;;;;4.90;1.52;;;37.10;41.80;;;;;;5088787;28;20196;-71
2022/06/13 11:29:15;;;;;;;2.55;1.52;;;36.20;41.60;;;;;;5088766;28;20192;-71
2022/06/13 11:31:53;;;;;;;2.75;1.60;;;35.70;41.60;;;;;;5092288;28;20205;-71
2022/06/13 11:34:28;;;;;;;2.70;1.75;;;35.80;42.70;;;;;;5092156;28;20199;-71
2022/06/13 11:37:02;;;;;;;2.45;1.42;;;34.90;44.80;;;;;;5091365;28;20704;-71
2022/06/13 11:39:43;;;;;;;3.67;1.85;;;33.70;45.30;;;;;;5093425;28;20174;-71
2022/06/13 11:42:24;;;;;;;3.08;1.50;;;32.00;46.80;;;;;;5094306;28;20201;-71
2022/06/13 11:44:59;;;;;;;2.47;1.80;;;31.50;47.20;;;;;;5091930;28;20197;-71
2022/06/13 11:47:25;;;;;;;1.95;1.73;;;31.90;46.80;;;;;;5094876;28;20211;-71
2022/06/13 11:49:57;;;;;;;4.03;1.73;;;32.10;46.90;;;;;;5089995;28;20232;-71
2022/06/13 11:55:24;;;;;;;4.43;1.90;;;32.20;48.30;;;;;;5087860;28;20608;-71
2022/06/13 11:58:03;;;;;;;2.30;1.60;;;32.90;46.00;;;;;;5094602;28;20659;-71
2022/06/13 12:00:52;;;;;;;3.38;1.40;;;33.80;45.10;;;;;;5097751;28;20173;-71
2022/06/13 12:03:26;;;;;;;3.67;1.80;;;34.30;44.70;;;;;;5091368;28;20682;-71
2022/06/13 12:06:08;;;;;;;3.60;1.55;;;33.90;44.90;;;;;;5099185;28;20184;-72
2022/06/13 12:08:34;;;;;;;2.47;1.67;;;33.50;44.10;;;;;;5094302;28;20812;-69
2022/06/13 12:11:27;;;;;;;2.92;1.83;;;33.70;44.40;;;;;;5089714;28;20300;-69
2022/06/13 12:13:56;;;;;;;3.78;1.48;;;33.90;45.10;;;;;;5091536;28;20210;-68
2022/06/13 12:17:00;;;;;;;3.55;1.63;;;35.60;41.50;;;;;;5098761;28;20173;-69
2022/06/13 12:19:41;;;;;;;3.00;1.55;;;35.60;41.20;;;;;;5095761;28;20544;-69
2022/06/13 12:22:38;;;;;;;2.30;1.60;;;35.90;39.80;;;;;;5093525;28;20196;-69
2022/06/13 12:25:10;;;;;;;2.47;1.60;;;35.90;40.00;;;;;;5102634;28;20212;-69
2022/06/13 12:28:05;;;;;;;1.75;1.30;;;36.00;39.00;;;;;;5097399;28;20268;-69
2022/06/13 12:30:56;;;;;;;1.55;1.00;;;36.20;39.70;;;;;;5099227;28;20174;-69
2022/06/13 12:33:48;;;;;;;1.15;1.00;;;37.10;36.60;;;;;;5088726;28;20246;-69
2022/06/13 12:36:38;;;;;;;1.45;1.30;;;39.20;35.10;;;;;;5090184;28;20182;-69
2022/06/13 12:39:21;;;;;;;2.63;1.60;;;39.50;34.80;;;;;;5095030;28;20652;-69
2022/06/13 12:42:07;;;;;;;2.40;1.50;;;39.90;36.80;;;;;;5096726;28;20194;-69
2022/06/13 12:44:51;;;;;;;2.50;1.40;;;40.20;35.80;;;;;;5093131;28;20193;-70
2022/06/13 12:48:08;;;;;;;1.90;1.38;;;40.20;35.50;;;;;;5094251;28;20243;-69
2022/06/13 12:50:57;;;;;;;2.45;1.40;;;38.50;36.90;;;;;;5051117;28;20187;-69
2022/06/13 12:53:23;;;;;;;1.38;1.15;;;40.30;35.20;;;;;;5051786;28;20265;-69
2022/06/13 12:56:07;;;;;;;2.28;1.50;;;41.40;33.70;;;;;;5076863;28;20205;-69
2022/06/13 12:58:36;;;;;;;2.72;1.50;;;43.30;32.80;;;;;;5103369;28;20169;-69
2022/06/13 13:01:16;;;;;;;1.42;1.33;;;42.30;32.90;;;;;;5093393;28;20210;-69
2022/06/13 13:04:06;;;;;;;2.05;1.30;;;42.20;32.70;;;;;;5093968;28;20185;-69
2022/06/13 13:07:04;;;;;;;2.58;1.27;;;43.60;32.10;;;;;;5091230;28;20186;-70
2022/06/13 13:10:06;;;;;;;1.90;1.50;;;45.20;30.40;;;;;;5094355;28;20183;-69
2022/06/13 13:13:01;;;;;;;2.83;1.55;;;46.70;29.10;;;;;;5091320;28;20283;-69
2022/06/13 13:15:30;;;;;;;1.25;1.15;;;47.20;29.30;;;;;;5097476;28;20224;-69
2022/06/13 13:18:20;;;;;;;3.47;1.77;;;48.30;28.50;;;;;;5099041;28;20660;-69
2022/06/13 13:20:54;;;;;;;2.35;1.20;;;49.60;27.30;;;;;;5091176;28;20186;-69
2022/06/13 13:23:29;;;;;;;1.92;1.17;;;49.30;27.30;;;;;;5094987;28;20178;-69
2022/06/13 13:25:58;;;;;;;1.95;1.35;;;48.70;27.00;;;;;;5103662;28;20177;-69
2022/06/13 13:28:53;;;;;;;3.38;1.50;;;49.40;26.10;;;;;;5098091;27;20206;-69
2022/06/13 13:31:23;;;;;;;1.95;1.30;;;49.90;26.40;;;;;;5091172;28;20406;-70
2022/06/13 13:34:16;;;;;;;0.98;0.98;;;47.90;26.70;;;;;;5093102;28;20683;-69
2022/06/13 13:37:05;;;;;;;1.35;1.25;;;47.70;26.80;;;;;;5091909;28;20170;-69
2022/06/13 13:39:56;;;;;;;1.25;1.15;;;48.90;26.90;;;;;;5087246;28;20194;-70
2022/06/13 13:42:31;;;;;;;2.97;1.35;;;48.10;27.10;;;;;;5096494;28;20201;-70
2022/06/13 13:45:14;;;;;;;1.30;1.20;;;49.70;27.00;;;;;;5097667;28;20196;-70
2022/06/13 13:47:43;;;;;;;1.25;1.15;;;51.00;25.90;;;;;;5088456;28;20242;-70
2022/06/13 13:50:23;;;;;;;1.92;1.52;;;52.20;25.60;;;;;;5098718;28;20182;-71
2022/06/13 13:52:55;;;;;;;2.92;1.00;;;53.50;25.50;;;;;;5096771;28;20205;-70